TimeCST,TemperatureF,Dew PointF,Humidity,Sea Level PressureIn,VisibilityMPH,Wind Direction,Wind SpeedMPH,Gust SpeedMPH,PrecipitationIn,Events,Conditions,WindDirDegrees,DateUTC
12:53 AM,45.0,43.0,93,30.28,6.0,Calm,Calm,-,N/A,,Overcast,0,2012-11-16 06:53:00
1:53 AM,46.9,44.1,90,30.27,7.0,Calm,Calm,-,N/A,,Overcast,0,2012-11-16 07:53:00
2:53 AM,46.9,44.1,90,30.26,9.0,NE,4.6,-,N/A,,Overcast,40,2012-11-16 08:53:00
3:53 AM,46.9,43.0,86,30.26,8.0,NNE,3.5,-,N/A,,Overcast,30,2012-11-16 09:53:00
4:53 AM,45.0,42.1,90,30.27,9.0,ENE,4.6,-,N/A,,Overcast,70,2012-11-16 10:53:00
5:53 AM,41.0,39.2,93,30.27,5.0,Calm,Calm,-,N/A,,Clear,0,2012-11-16 11:53:00
6:25 AM,42.8,41.0,93,30.28,1.2,Calm,Calm,-,N/A,,Clear,0,2012-11-16 12:25:00
6:29 AM,39.2,39.2,100,30.29,0.2,Calm,Calm,-,N/A,Fog,Fog,0,2012-11-16 12:29:00
6:34 AM,41.0,39.2,93,30.29,3.0,Calm,Calm,-,N/A,,Partly Cloudy,0,2012-11-16 12:34:00
6:53 AM,42.1,41.0,96,30.30,3.0,Calm,Calm,-,N/A,,Scattered Clouds,0,2012-11-16 12:53:00
7:00 AM,42.8,41.0,93,30.30,2.0,Calm,Calm,-,N/A,,Mostly Cloudy,0,2012-11-16 13:00:00
7:40 AM,46.4,44.6,93,30.32,2.0,Calm,Calm,-,N/A,,Overcast,0,2012-11-16 13:40:00
7:48 AM,46.4,44.6,93,30.32,6.0,Calm,Calm,-,N/A,,Overcast,0,2012-11-16 13:48:00
7:53 AM,48.0,44.1,86,30.32,6.0,Calm,Calm,-,N/A,,Overcast,0,2012-11-16 13:53:00
8:53 AM,53.1,46.0,77,30.32,9.0,East,9.2,-,N/A,,Overcast,80,2012-11-16 14:53:00
9:53 AM,55.9,44.1,64,30.33,10.0,East,8.1,-,N/A,,Scattered Clouds,80,2012-11-16 15:53:00
10:53 AM,59.0,44.1,58,30.31,10.0,Variable,6.9,-,N/A,,Clear,0,2012-11-16 16:53:00
11:53 AM,62.1,44.1,52,30.28,10.0,North,8.1,-,N/A,,Clear,360,2012-11-16 17:53:00
12:53 PM,64.0,44.1,48,30.25,10.0,North,9.2,-,N/A,,Clear,10,2012-11-16 18:53:00
1:53 PM,66.0,43.0,43,30.24,10.0,NNE,5.8,-,N/A,,Clear,30,2012-11-16 19:53:00
2:53 PM,66.0,42.1,42,30.23,10.0,NNE,5.8,-,N/A,,Clear,30,2012-11-16 20:53:00
3:53 PM,64.9,42.1,43,30.23,10.0,North,6.9,-,N/A,,Clear,10,2012-11-16 21:53:00
4:53 PM,55.9,42.1,60,30.24,10.0,Calm,Calm,-,N/A,,Clear,0,2012-11-16 22:53:00
5:53 PM,55.0,43.0,64,30.25,10.0,NW,3.5,-,N/A,,Clear,320,2012-11-16 23:53:00
6:53 PM,52.0,41.0,66,30.27,10.0,North,5.8,-,N/A,,Clear,350,2012-11-17 00:53:00
7:53 PM,52.0,39.0,61,30.28,10.0,North,6.9,-,N/A,,Clear,10,2012-11-17 01:53:00
8:53 PM,50.0,39.0,66,30.29,10.0,North,5.8,-,N/A,,Clear,360,2012-11-17 02:53:00
9:53 PM,50.0,39.0,66,30.30,10.0,Calm,Calm,-,N/A,,Clear,0,2012-11-17 03:53:00
10:53 PM,46.0,37.9,73,30.30,10.0,Calm,Calm,-,N/A,,Clear,0,2012-11-17 04:53:00
11:53 PM,42.1,37.9,85,30.31,10.0,Calm,Calm,-,N/A,,Clear,0,2012-11-17 05:53:00